sensor_id;sensor_type;location;lat;lon;timestamp;P1;durP1;ratioP1;P2;durP2;ratioP2
6197;SDS011;3132;42.622;23.328;2024-02-23T00:02:19;17.50;;;16.00;;
6197;SDS011;3132;42.622;23.328;2024-02-23T00:04:45;16.97;;;15.47;;
6197;SDS011;3132;42.622;23.328;2024-02-23T00:07:10;18.50;;;16.70;;
6197;SDS011;3132;42.622;23.328;2024-02-23T00:09:36;16.73;;;15.33;;
6197;SDS011;3132;42.622;23.328;2024-02-23T00:12:01;18.53;;;16.63;;
6197;SDS011;3132;42.622;23.328;2024-02-23T00:14:27;22.73;;;18.90;;
6197;SDS011;3132;42.622;23.328;2024-02-23T00:16:53;17.07;;;15.40;;
6197;SDS011;3132;42.622;23.328;2024-02-23T00:19:18;17.50;;;15.90;;
6197;SDS011;3132;42.622;23.328;2024-02-23T00:21:44;15.37;;;13.90;;
6197;SDS011;3132;42.622;23.328;2024-02-23T00:24:14;18.20;;;16.50;;
6197;SDS011;3132;42.622;23.328;2024-02-23T00:26:41;16.67;;;14.97;;
6197;SDS011;3132;42.622;23.328;2024-02-23T00:29:06;16.03;;;14.50;;
6197;SDS011;3132;42.622;23.328;2024-02-23T00:31:33;16.13;;;14.70;;
6197;SDS011;3132;42.622;23.328;2024-02-23T00:33:58;17.90;;;16.07;;
6197;SDS011;3132;42.622;23.328;2024-02-23T00:36:23;17.90;;;16.10;;
6197;SDS011;3132;42.622;23.328;2024-02-23T00:38:49;19.57;;;17.43;;
6197;SDS011;3132;42.622;23.328;2024-02-23T00:41:14;19.23;;;17.03;;
6197;SDS011;3132;42.622;23.328;2024-02-23T00:43:40;18.27;;;16.47;;
6197;SDS011;3132;42.622;23.328;2024-02-23T00:46:06;19.43;;;17.23;;
6197;SDS011;3132;42.622;23.328;2024-02-23T00:48:32;18.43;;;16.43;;
6197;SDS011;3132;42.622;23.328;2024-02-23T00:50:57;19.37;;;17.47;;
6197;SDS011;3132;42.622;23.328;2024-02-23T00:53:23;19.70;;;17.60;;
6197;SDS011;3132;42.622;23.328;2024-02-23T00:55:48;20.57;;;17.73;;
6197;SDS011;3132;42.622;23.328;2024-02-23T00:58:13;18.67;;;16.53;;
6197;SDS011;3132;42.622;23.328;2024-02-23T01:00:40;18.63;;;16.77;;
6197;SDS011;3132;42.622;23.328;2024-02-23T01:03:06;19.97;;;16.80;;
6197;SDS011;3132;42.622;23.328;2024-02-23T01:05:32;19.47;;;17.43;;
6197;SDS011;3132;42.622;23.328;2024-02-23T01:07:57;18.80;;;16.57;;
6197;SDS011;3132;42.622;23.328;2024-02-23T01:10:22;17.67;;;15.87;;
6197;SDS011;3132;42.622;23.328;2024-02-23T01:12:48;18.43;;;14.97;;
6197;SDS011;3132;42.622;23.328;2024-02-23T01:15:13;16.83;;;15.07;;
6197;SDS011;3132;42.622;23.328;2024-02-23T01:17:38;16.90;;;15.20;;
6197;SDS011;3132;42.622;23.328;2024-02-23T01:20:04;18.07;;;16.07;;
6197;SDS011;3132;42.622;23.328;2024-02-23T01:22:30;17.53;;;15.90;;
6197;SDS011;3132;42.622;23.328;2024-02-23T01:24:55;17.20;;;15.60;;
6197;SDS011;3132;42.622;23.328;2024-02-23T01:27:20;17.30;;;15.70;;
6197;SDS011;3132;42.622;23.328;2024-02-23T01:29:47;16.27;;;14.70;;
6197;SDS011;3132;42.622;23.328;2024-02-23T01:32:12;14.80;;;13.67;;
6197;SDS011;3132;42.622;23.328;2024-02-23T01:34:37;15.83;;;14.43;;
6197;SDS011;3132;42.622;23.328;2024-02-23T01:37:03;16.20;;;14.87;;
6197;SDS011;3132;42.622;23.328;2024-02-23T01:39:28;16.63;;;15.30;;
6197;SDS011;3132;42.622;23.328;2024-02-23T01:41:53;16.07;;;14.47;;
6197;SDS011;3132;42.622;23.328;2024-02-23T01:44:20;16.50;;;14.80;;
6197;SDS011;3132;42.622;23.328;2024-02-23T01:46:46;17.47;;;15.83;;
6197;SDS011;3132;42.622;23.328;2024-02-23T01:49:12;18.17;;;16.33;;
6197;SDS011;3132;42.622;23.328;2024-02-23T01:51:38;23.33;;;17.80;;
6197;SDS011;3132;42.622;23.328;2024-02-23T01:54:04;18.97;;;17.00;;
6197;SDS011;3132;42.622;23.328;2024-02-23T01:56:31;19.63;;;17.53;;
6197;SDS011;3132;42.622;23.328;2024-02-23T01:58:58;18.37;;;16.47;;
6197;SDS011;3132;42.622;23.328;2024-02-23T02:01:24;18.00;;;16.07;;
6197;SDS011;3132;42.622;23.328;2024-02-23T02:03:50;17.63;;;15.90;;
6197;SDS011;3132;42.622;23.328;2024-02-23T02:06:15;18.33;;;16.53;;
6197;SDS011;3132;42.622;23.328;2024-02-23T02:08:40;16.77;;;15.10;;
6197;SDS011;3132;42.622;23.328;2024-02-23T02:11:06;16.87;;;15.27;;
6197;SDS011;3132;42.622;23.328;2024-02-23T02:13:31;18.50;;;16.80;;
6197;SDS011;3132;42.622;23.328;2024-02-23T02:15:58;19.23;;;17.27;;
6197;SDS011;3132;42.622;23.328;2024-02-23T02:18:27;15.87;;;14.53;;
6197;SDS011;3132;42.622;23.328;2024-02-23T02:20:56;16.87;;;15.20;;
6197;SDS011;3132;42.622;23.328;2024-02-23T02:23:22;17.80;;;16.00;;
6197;SDS011;3132;42.622;23.328;2024-02-23T02:25:55;16.77;;;14.97;;
6197;SDS011;3132;42.622;23.328;2024-02-23T02:28:21;16.73;;;15.13;;
6197;SDS011;3132;42.622;23.328;2024-02-23T02:30:47;16.13;;;14.63;;
6197;SDS011;3132;42.622;23.328;2024-02-23T02:33:13;16.60;;;15.13;;
6197;SDS011;3132;42.622;23.328;2024-02-23T02:35:38;17.27;;;15.70;;
6197;SDS011;3132;42.622;23.328;2024-02-23T02:38:04;16.50;;;15.00;;
6197;SDS011;3132;42.622;23.328;2024-02-23T02:40:29;17.60;;;15.73;;
6197;SDS011;3132;42.622;23.328;2024-02-23T02:42:54;18.63;;;16.67;;
6197;SDS011;3132;42.622;23.328;2024-02-23T02:45:20;19.10;;;17.37;;
6197;SDS011;3132;42.622;23.328;2024-02-23T02:47:45;19.17;;;17.17;;
6197;SDS011;3132;42.622;23.328;2024-02-23T02:50:11;17.07;;;15.40;;
6197;SDS011;3132;42.622;23.328;2024-02-23T02:52:37;16.83;;;15.37;;
6197;SDS011;3132;42.622;23.328;2024-02-23T02:55:02;16.63;;;15.13;;
6197;SDS011;3132;42.622;23.328;2024-02-23T02:57:28;15.63;;;14.33;;
6197;SDS011;3132;42.622;23.328;2024-02-23T02:59:54;16.53;;;14.80;;
6197;SDS011;3132;42.622;23.328;2024-02-23T03:02:20;16.83;;;15.30;;
6197;SDS011;3132;42.622;23.328;2024-02-23T03:04:48;18.60;;;16.60;;
6197;SDS011;3132;42.622;23.328;2024-02-23T03:07:14;18.57;;;15.13;;
6197;SDS011;3132;42.622;23.328;2024-02-23T03:09:41;17.33;;;15.70;;
6197;SDS011;3132;42.622;23.328;2024-02-23T03:12:06;17.13;;;15.53;;
6197;SDS011;3132;42.622;23.328;2024-02-23T03:14:31;16.67;;;15.20;;
6197;SDS011;3132;42.622;23.328;2024-02-23T03:16:58;17.50;;;15.83;;
6197;SDS011;3132;42.622;23.328;2024-02-23T03:19:24;17.73;;;16.03;;
6197;SDS011;3132;42.622;23.328;2024-02-23T03:21:50;18.00;;;16.30;;
6197;SDS011;3132;42.622;23.328;2024-02-23T03:24:16;18.47;;;16.80;;
6197;SDS011;3132;42.622;23.328;2024-02-23T03:26:42;16.73;;;15.13;;
6197;SDS011;3132;42.622;23.328;2024-02-23T03:29:07;17.33;;;15.87;;
6197;SDS011;3132;42.622;23.328;2024-02-23T03:31:34;16.83;;;14.97;;
6197;SDS011;3132;42.622;23.328;2024-02-23T03:33:59;16.33;;;14.80;;
6197;SDS011;3132;42.622;23.328;2024-02-23T03:36:24;16.63;;;15.03;;
6197;SDS011;3132;42.622;23.328;2024-02-23T03:38:49;16.70;;;15.10;;
6197;SDS011;3132;42.622;23.328;2024-02-23T03:41:15;17.43;;;15.67;;
6197;SDS011;3132;42.622;23.328;2024-02-23T03:43:40;16.80;;;15.10;;
6197;SDS011;3132;42.622;23.328;2024-02-23T03:46:06;17.37;;;15.63;;
6197;SDS011;3132;42.622;23.328;2024-02-23T03:48:31;16.47;;;15.03;;
6197;SDS011;3132;42.622;23.328;2024-02-23T03:50:57;17.20;;;15.63;;
6197;SDS011;3132;42.622;23.328;2024-02-23T03:53:22;15.27;;;13.90;;
6197;SDS011;3132;42.622;23.328;2024-02-23T03:55:48;15.20;;;13.90;;
6197;SDS011;3132;42.622;23.328;2024-02-23T03:58:13;16.10;;;14.60;;
6197;SDS011;3132;42.622;23.328;2024-02-23T04:00:39;16.20;;;14.60;;
6197;SDS011;3132;42.622;23.328;2024-02-23T04:03:04;16.40;;;14.90;;
6197;SDS011;3132;42.622;23.328;2024-02-23T04:05:29;16.73;;;15.03;;
6197;SDS011;3132;42.622;23.328;2024-02-23T04:07:55;16.37;;;15.03;;
6197;SDS011;3132;42.622;23.328;2024-02-23T04:10:20;15.80;;;14.37;;
6197;SDS011;3132;42.622;23.328;2024-02-23T04:12:48;16.70;;;15.00;;
6197;SDS011;3132;42.622;23.328;2024-02-23T04:15:14;16.83;;;15.57;;
6197;SDS011;3132;42.622;23.328;2024-02-23T04:17:39;15.90;;;14.50;;
6197;SDS011;3132;42.622;23.328;2024-02-23T04:20:06;15.83;;;14.43;;
6197;SDS011;3132;42.622;23.328;2024-02-23T04:22:32;17.07;;;15.23;;
6197;SDS011;3132;42.622;23.328;2024-02-23T04:24:58;16.27;;;14.60;;
6197;SDS011;3132;42.622;23.328;2024-02-23T04:27:23;16.27;;;14.63;;
6197;SDS011;3132;42.622;23.328;2024-02-23T04:29:49;15.50;;;14.10;;
6197;SDS011;3132;42.622;23.328;2024-02-23T04:32:14;15.90;;;14.20;;
6197;SDS011;3132;42.622;23.328;2024-02-23T04:34:39;17.17;;;15.57;;
6197;SDS011;3132;42.622;23.328;2024-02-23T04:37:06;17.70;;;16.23;;
6197;SDS011;3132;42.622;23.328;2024-02-23T04:39:31;17.30;;;15.70;;
6197;SDS011;3132;42.622;23.328;2024-02-23T04:41:57;17.87;;;16.27;;
6197;SDS011;3132;42.622;23.328;2024-02-23T04:44:23;20.13;;;16.70;;
6197;SDS011;3132;42.622;23.328;2024-02-23T04:46:48;16.20;;;14.63;;
6197;SDS011;3132;42.622;23.328;2024-02-23T04:49:14;16.27;;;14.87;;
6197;SDS011;3132;42.622;23.328;2024-02-23T04:51:39;16.83;;;15.33;;
6197;SDS011;3132;42.622;23.328;2024-02-23T04:54:04;18.37;;;16.60;;
6197;SDS011;3132;42.622;23.328;2024-02-23T04:56:30;17.40;;;15.70;;
6197;SDS011;3132;42.622;23.328;2024-02-23T04:58:55;16.37;;;14.77;;
6197;SDS011;3132;42.622;23.328;2024-02-23T05:01:20;17.17;;;15.43;;
6197;SDS011;3132;42.622;23.328;2024-02-23T05:03:46;16.07;;;14.60;;
6197;SDS011;3132;42.622;23.328;2024-02-23T05:06:11;16.13;;;14.67;;
6197;SDS011;3132;42.622;23.328;2024-02-23T05:08:38;18.27;;;16.40;;
6197;SDS011;3132;42.622;23.328;2024-02-23T05:11:03;16.63;;;14.93;;
6197;SDS011;3132;42.622;23.328;2024-02-23T05:13:29;19.37;;;17.37;;
6197;SDS011;3132;42.622;23.328;2024-02-23T05:15:57;18.07;;;16.40;;
6197;SDS011;3132;42.622;23.328;2024-02-23T05:18:23;18.63;;;16.87;;
6197;SDS011;3132;42.622;23.328;2024-02-23T05:20:48;18.47;;;16.57;;
6197;SDS011;3132;42.622;23.328;2024-02-23T05:23:14;20.70;;;18.87;;
6197;SDS011;3132;42.622;23.328;2024-02-23T05:25:41;19.33;;;17.43;;
6197;SDS011;3132;42.622;23.328;2024-02-23T05:28:06;19.90;;;18.10;;
6197;SDS011;3132;42.622;23.328;2024-02-23T05:30:32;19.47;;;17.67;;
6197;SDS011;3132;42.622;23.328;2024-02-23T05:32:57;20.07;;;18.13;;
6197;SDS011;3132;42.622;23.328;2024-02-23T05:35:23;19.37;;;17.47;;
6197;SDS011;3132;42.622;23.328;2024-02-23T05:37:49;20.10;;;18.00;;
6197;SDS011;3132;42.622;23.328;2024-02-23T05:40:15;18.50;;;16.70;;
6197;SDS011;3132;42.622;23.328;2024-02-23T05:42:40;17.87;;;16.17;;
6197;SDS011;3132;42.622;23.328;2024-02-23T05:45:06;17.60;;;15.90;;
6197;SDS011;3132;42.622;23.328;2024-02-23T05:47:34;17.13;;;15.73;;
6197;SDS011;3132;42.622;23.328;2024-02-23T05:50:07;19.77;;;17.70;;
6197;SDS011;3132;42.622;23.328;2024-02-23T05:52:34;32.90;;;23.63;;
6197;SDS011;3132;42.622;23.328;2024-02-23T05:55:00;30.83;;;23.53;;
6197;SDS011;3132;42.622;23.328;2024-02-23T05:57:26;26.73;;;19.77;;
6197;SDS011;3132;42.622;23.328;2024-02-23T05:59:52;18.73;;;16.80;;
6197;SDS011;3132;42.622;23.328;2024-02-23T06:02:18;21.37;;;17.47;;
6197;SDS011;3132;42.622;23.328;2024-02-23T06:04:43;18.83;;;16.90;;
6197;SDS011;3132;42.622;23.328;2024-02-23T06:07:08;18.80;;;16.60;;
6197;SDS011;3132;42.622;23.328;2024-02-23T06:09:34;26.17;;;20.13;;
6197;SDS011;3132;42.622;23.328;2024-02-23T06:12:00;26.03;;;20.13;;
6197;SDS011;3132;42.622;23.328;2024-02-23T06:14:26;21.17;;;18.83;;
6197;SDS011;3132;42.622;23.328;2024-02-23T06:16:51;17.67;;;16.17;;
6197;SDS011;3132;42.622;23.328;2024-02-23T06:19:16;17.30;;;15.57;;
6197;SDS011;3132;42.622;23.328;2024-02-23T06:21:42;17.77;;;15.77;;
6197;SDS011;3132;42.622;23.328;2024-02-23T06:24:07;18.13;;;16.37;;
6197;SDS011;3132;42.622;23.328;2024-02-23T06:26:34;17.63;;;15.83;;
6197;SDS011;3132;42.622;23.328;2024-02-23T06:28:59;19.10;;;17.20;;
6197;SDS011;3132;42.622;23.328;2024-02-23T06:31:25;19.83;;;17.03;;
6197;SDS011;3132;42.622;23.328;2024-02-23T06:33:50;18.33;;;16.53;;
6197;SDS011;3132;42.622;23.328;2024-02-23T06:36:17;17.67;;;15.83;;
6197;SDS011;3132;42.622;23.328;2024-02-23T06:38:43;17.83;;;16.03;;
6197;SDS011;3132;42.622;23.328;2024-02-23T06:41:09;18.33;;;16.07;;
6197;SDS011;3132;42.622;23.328;2024-02-23T06:43:36;19.20;;;17.40;;
6197;SDS011;3132;42.622;23.328;2024-02-23T06:46:08;17.67;;;15.97;;
6197;SDS011;3132;42.622;23.328;2024-02-23T06:48:34;20.10;;;16.27;;
6197;SDS011;3132;42.622;23.328;2024-02-23T06:51:00;18.20;;;16.40;;
6197;SDS011;3132;42.622;23.328;2024-02-23T06:53:25;19.13;;;17.33;;
6197;SDS011;3132;42.622;23.328;2024-02-23T06:55:50;18.60;;;16.70;;
6197;SDS011;3132;42.622;23.328;2024-02-23T06:58:16;17.63;;;15.93;;
6197;SDS011;3132;42.622;23.328;2024-02-23T07:00:43;18.60;;;16.80;;
6197;SDS011;3132;42.622;23.328;2024-02-23T07:03:09;18.87;;;17.03;;
6197;SDS011;3132;42.622;23.328;2024-02-23T07:05:34;21.00;;;16.47;;
6197;SDS011;3132;42.622;23.328;2024-02-23T07:08:00;18.63;;;16.93;;
6197;SDS011;3132;42.622;23.328;2024-02-23T07:10:26;18.23;;;16.37;;
6197;SDS011;3132;42.622;23.328;2024-02-23T07:12:52;17.90;;;16.13;;
6197;SDS011;3132;42.622;23.328;2024-02-23T07:15:23;17.70;;;15.80;;
6197;SDS011;3132;42.622;23.328;2024-02-23T07:17:49;16.93;;;14.90;;
6197;SDS011;3132;42.622;23.328;2024-02-23T07:20:14;21.43;;;16.73;;
6197;SDS011;3132;42.622;23.328;2024-02-23T07:22:43;16.83;;;15.13;;
6197;SDS011;3132;42.622;23.328;2024-02-23T07:25:09;16.63;;;15.03;;
6197;SDS011;3132;42.622;23.328;2024-02-23T07:27:35;17.07;;;15.27;;
6197;SDS011;3132;42.622;23.328;2024-02-23T07:30:00;18.50;;;15.97;;
6197;SDS011;3132;42.622;23.328;2024-02-23T07:32:25;18.37;;;16.60;;
6197;SDS011;3132;42.622;23.328;2024-02-23T07:34:51;17.37;;;15.77;;
6197;SDS011;3132;42.622;23.328;2024-02-23T07:37:17;17.43;;;15.83;;
6197;SDS011;3132;42.622;23.328;2024-02-23T07:39:43;22.43;;;16.57;;
6197;SDS011;3132;42.622;23.328;2024-02-23T07:42:08;18.07;;;16.17;;
6197;SDS011;3132;42.622;23.328;2024-02-23T07:44:35;17.07;;;14.97;;
6197;SDS011;3132;42.622;23.328;2024-02-23T07:47:02;16.97;;;15.27;;
6197;SDS011;3132;42.622;23.328;2024-02-23T07:49:28;18.80;;;16.83;;
6197;SDS011;3132;42.622;23.328;2024-02-23T07:51:53;18.97;;;17.03;;
6197;SDS011;3132;42.622;23.328;2024-02-23T07:54:19;20.77;;;16.93;;
6197;SDS011;3132;42.622;23.328;2024-02-23T07:56:44;20.53;;;17.87;;
6197;SDS011;3132;42.622;23.328;2024-02-23T07:59:09;19.13;;;17.07;;
6197;SDS011;3132;42.622;23.328;2024-02-23T08:01:35;18.47;;;16.53;;
6197;SDS011;3132;42.622;23.328;2024-02-23T08:04:00;18.50;;;16.57;;
6197;SDS011;3132;42.622;23.328;2024-02-23T08:06:26;19.53;;;17.53;;
6197;SDS011;3132;42.622;23.328;2024-02-23T08:08:51;22.73;;;17.73;;
6197;SDS011;3132;42.622;23.328;2024-02-23T08:11:18;23.07;;;18.37;;
6197;SDS011;3132;42.622;23.328;2024-02-23T08:13:44;19.13;;;16.57;;
6197;SDS011;3132;42.622;23.328;2024-02-23T08:16:09;24.93;;;19.03;;
6197;SDS011;3132;42.622;23.328;2024-02-23T08:18:35;21.73;;;18.03;;
6197;SDS011;3132;42.622;23.328;2024-02-23T08:21:01;21.30;;;17.10;;
6197;SDS011;3132;42.622;23.328;2024-02-23T08:23:28;26.47;;;19.17;;
6197;SDS011;3132;42.622;23.328;2024-02-23T08:25:54;26.80;;;17.73;;
6197;SDS011;3132;42.622;23.328;2024-02-23T08:28:21;22.93;;;18.00;;
6197;SDS011;3132;42.622;23.328;2024-02-23T08:30:47;25.33;;;18.70;;
6197;SDS011;3132;42.622;23.328;2024-02-23T08:33:13;24.73;;;18.67;;
6197;SDS011;3132;42.622;23.328;2024-02-23T08:35:38;26.63;;;19.50;;
6197;SDS011;3132;42.622;23.328;2024-02-23T08:38:03;24.43;;;18.27;;
6197;SDS011;3132;42.622;23.328;2024-02-23T08:40:29;24.07;;;19.63;;
6197;SDS011;3132;42.622;23.328;2024-02-23T08:42:54;24.03;;;19.63;;
6197;SDS011;3132;42.622;23.328;2024-02-23T08:45:20;21.90;;;19.50;;
6197;SDS011;3132;42.622;23.328;2024-02-23T08:47:45;20.87;;;17.30;;
6197;SDS011;3132;42.622;23.328;2024-02-23T08:50:11;20.13;;;18.03;;
6197;SDS011;3132;42.622;23.328;2024-02-23T08:52:36;18.93;;;16.87;;
6197;SDS011;3132;42.622;23.328;2024-02-23T08:55:02;25.93;;;17.67;;
6197;SDS011;3132;42.622;23.328;2024-02-23T08:57:28;23.23;;;17.40;;
6197;SDS011;3132;42.622;23.328;2024-02-23T08:59:54;17.67;;;15.87;;
6197;SDS011;3132;42.622;23.328;2024-02-23T09:02:22;20.27;;;17.67;;
6197;SDS011;3132;42.622;23.328;2024-02-23T09:04:48;20.70;;;16.33;;
6197;SDS011;3132;42.622;23.328;2024-02-23T09:07:13;20.63;;;18.10;;
6197;SDS011;3132;42.622;23.328;2024-02-23T09:09:39;21.27;;;16.77;;
6197;SDS011;3132;42.622;23.328;2024-02-23T09:12:04;19.20;;;16.57;;
6197;SDS011;3132;42.622;23.328;2024-02-23T09:14:31;21.27;;;17.20;;
6197;SDS011;3132;42.622;23.328;2024-02-23T09:16:58;17.03;;;15.43;;
6197;SDS011;3132;42.622;23.328;2024-02-23T09:19:23;18.10;;;16.20;;
6197;SDS011;3132;42.622;23.328;2024-02-23T09:21:48;16.80;;;15.10;;
6197;SDS011;3132;42.622;23.328;2024-02-23T09:24:14;17.93;;;16.23;;
6197;SDS011;3132;42.622;23.328;2024-02-23T09:26:39;17.37;;;15.67;;
6197;SDS011;3132;42.622;23.328;2024-02-23T09:29:05;16.73;;;15.10;;
6197;SDS011;3132;42.622;23.328;2024-02-23T09:31:30;16.33;;;14.67;;
6197;SDS011;3132;42.622;23.328;2024-02-23T09:33:56;15.90;;;14.40;;
6197;SDS011;3132;42.622;23.328;2024-02-23T09:36:22;15.87;;;14.50;;
6197;SDS011;3132;42.622;23.328;2024-02-23T09:38:48;16.77;;;14.67;;
6197;SDS011;3132;42.622;23.328;2024-02-23T09:41:22;15.53;;;14.20;;
6197;SDS011;3132;42.622;23.328;2024-02-23T09:43:48;16.70;;;15.07;;
6197;SDS011;3132;42.622;23.328;2024-02-23T09:46:15;15.03;;;13.83;;
6197;SDS011;3132;42.622;23.328;2024-02-23T09:48:44;15.03;;;13.73;;
6197;SDS011;3132;42.622;23.328;2024-02-23T09:51:14;13.33;;;12.07;;
6197;SDS011;3132;42.622;23.328;2024-02-23T09:53:41;19.60;;;11.90;;
6197;SDS011;3132;42.622;23.328;2024-02-23T09:56:07;10.63;;;10.00;;
6197;SDS011;3132;42.622;23.328;2024-02-23T09:58:34;11.00;;;10.40;;
6197;SDS011;3132;42.622;23.328;2024-02-23T10:01:04;11.60;;;10.70;;
6197;SDS011;3132;42.622;23.328;2024-02-23T10:03:29;11.03;;;10.27;;
6197;SDS011;3132;42.622;23.328;2024-02-23T10:05:58;12.93;;;11.87;;
6197;SDS011;3132;42.622;23.328;2024-02-23T10:08:26;12.37;;;11.47;;
6197;SDS011;3132;42.622;23.328;2024-02-23T10:10:52;10.83;;;9.90;;
6197;SDS011;3132;42.622;23.328;2024-02-23T10:13:18;10.90;;;10.00;;
6197;SDS011;3132;42.622;23.328;2024-02-23T10:15:45;11.13;;;10.53;;
6197;SDS011;3132;42.622;23.328;2024-02-23T10:18:12;11.00;;;10.13;;
6197;SDS011;3132;42.622;23.328;2024-02-23T10:20:37;11.60;;;10.90;;
6197;SDS011;3132;42.622;23.328;2024-02-23T10:23:04;11.07;;;10.37;;
6197;SDS011;3132;42.622;23.328;2024-02-23T10:25:29;10.60;;;9.90;;
6197;SDS011;3132;42.622;23.328;2024-02-23T10:27:55;9.83;;;9.23;;
6197;SDS011;3132;42.622;23.328;2024-02-23T10:30:20;10.87;;;9.77;;
6197;SDS011;3132;42.622;23.328;2024-02-23T10:32:45;11.23;;;9.93;;
6197;SDS011;3132;42.622;23.328;2024-02-23T10:35:14;10.07;;;9.33;;
6197;SDS011;3132;42.622;23.328;2024-02-23T10:37:42;9.33;;;8.83;;
6197;SDS011;3132;42.622;23.328;2024-02-23T10:40:09;9.90;;;9.40;;
6197;SDS011;3132;42.622;23.328;2024-02-23T10:42:37;9.47;;;8.97;;
6197;SDS011;3132;42.622;23.328;2024-02-23T10:45:04;10.40;;;9.67;;
6197;SDS011;3132;42.622;23.328;2024-02-23T10:47:31;10.03;;;9.33;;
6197;SDS011;3132;42.622;23.328;2024-02-23T10:49:59;10.40;;;9.80;;
6197;SDS011;3132;42.622;23.328;2024-02-23T10:52:26;9.73;;;9.20;;
6197;SDS011;3132;42.622;23.328;2024-02-23T10:54:53;9.97;;;9.47;;
6197;SDS011;3132;42.622;23.328;2024-02-23T10:57:20;10.67;;;10.00;;
6197;SDS011;3132;42.622;23.328;2024-02-23T10:59:46;8.97;;;8.27;;
6197;SDS011;3132;42.622;23.328;2024-02-23T11:02:13;11.07;;;10.27;;
6197;SDS011;3132;42.622;23.328;2024-02-23T11:04:48;10.20;;;9.60;;
6197;SDS011;3132;42.622;23.328;2024-02-23T11:07:15;10.10;;;9.13;;
6197;SDS011;3132;42.622;23.328;2024-02-23T11:09:47;9.60;;;8.90;;
6197;SDS011;3132;42.622;23.328;2024-02-23T11:12:21;9.87;;;9.10;;
6197;SDS011;3132;42.622;23.328;2024-02-23T11:14:49;9.90;;;9.40;;
6197;SDS011;3132;42.622;23.328;2024-02-23T11:17:18;10.30;;;9.60;;
6197;SDS011;3132;42.622;23.328;2024-02-23T11:19:45;10.20;;;9.20;;
6197;SDS011;3132;42.622;23.328;2024-02-23T11:22:13;10.07;;;9.43;;
6197;SDS011;3132;42.622;23.328;2024-02-23T11:24:42;11.07;;;10.37;;
6197;SDS011;3132;42.622;23.328;2024-02-23T11:27:14;9.93;;;9.33;;
6197;SDS011;3132;42.622;23.328;2024-02-23T11:29:42;8.80;;;8.30;;
6197;SDS011;3132;42.622;23.328;2024-02-23T11:32:15;9.53;;;8.87;;
6197;SDS011;3132;42.622;23.328;2024-02-23T11:34:42;10.53;;;9.93;;
6197;SDS011;3132;42.622;23.328;2024-02-23T11:37:19;9.60;;;9.00;;
6197;SDS011;3132;42.622;23.328;2024-02-23T11:39:45;10.37;;;9.33;;
6197;SDS011;3132;42.622;23.328;2024-02-23T11:42:10;10.47;;;9.50;;
6197;SDS011;3132;42.622;23.328;2024-02-23T11:44:36;10.23;;;9.43;;
6197;SDS011;3132;42.622;23.328;2024-02-23T11:47:01;9.17;;;8.67;;
6197;SDS011;3132;42.622;23.328;2024-02-23T11:49:27;10.10;;;9.30;;
6197;SDS011;3132;42.622;23.328;2024-02-23T11:51:55;11.07;;;10.07;;
6197;SDS011;3132;42.622;23.328;2024-02-23T11:54:21;10.73;;;9.57;;
6197;SDS011;3132;42.622;23.328;2024-02-23T11:56:47;9.47;;;8.97;;
6197;SDS011;3132;42.622;23.328;2024-02-23T11:59:14;9.90;;;8.70;;
6197;SDS011;3132;42.622;23.328;2024-02-23T12:01:40;12.97;;;12.27;;
6197;SDS011;3132;42.622;23.328;2024-02-23T12:04:06;9.47;;;8.80;;
6197;SDS011;3132;42.622;23.328;2024-02-23T12:06:32;9.50;;;9.10;;
6197;SDS011;3132;42.622;23.328;2024-02-23T12:08:58;9.67;;;9.13;;
6197;SDS011;3132;42.622;23.328;2024-02-23T12:11:25;9.87;;;9.30;;
6197;SDS011;3132;42.622;23.328;2024-02-23T12:13:50;9.33;;;8.80;;
6197;SDS011;3132;42.622;23.328;2024-02-23T12:16:20;11.10;;;9.70;;
6197;SDS011;3132;42.622;23.328;2024-02-23T12:18:46;9.87;;;9.07;;
6197;SDS011;3132;42.622;23.328;2024-02-23T12:21:18;10.73;;;9.90;;
6197;SDS011;3132;42.622;23.328;2024-02-23T12:23:44;9.77;;;9.27;;
6197;SDS011;3132;42.622;23.328;2024-02-23T12:26:12;8.53;;;8.13;;
6197;SDS011;3132;42.622;23.328;2024-02-23T12:28:38;9.77;;;9.17;;
6197;SDS011;3132;42.622;23.328;2024-02-23T12:31:04;9.47;;;9.03;;
6197;SDS011;3132;42.622;23.328;2024-02-23T12:33:31;9.10;;;8.70;;
6197;SDS011;3132;42.622;23.328;2024-02-23T12:36:00;9.50;;;8.93;;
6197;SDS011;3132;42.622;23.328;2024-02-23T12:38:28;9.63;;;9.03;;
6197;SDS011;3132;42.622;23.328;2024-02-23T12:40:53;29.53;;;11.93;;
6197;SDS011;3132;42.622;23.328;2024-02-23T12:43:19;10.23;;;9.40;;
6197;SDS011;3132;42.622;23.328;2024-02-23T12:45:52;10.20;;;9.53;;
6197;SDS011;3132;42.622;23.328;2024-02-23T12:48:19;9.93;;;9.40;;
6197;SDS011;3132;42.622;23.328;2024-02-23T12:50:45;8.97;;;8.00;;
6197;SDS011;3132;42.622;23.328;2024-02-23T12:53:13;9.17;;;8.57;;
6197;SDS011;3132;42.622;23.328;2024-02-23T12:56:03;9.07;;;8.67;;
6197;SDS011;3132;42.622;23.328;2024-02-23T12:58:29;9.27;;;8.87;;
6197;SDS011;3132;42.622;23.328;2024-02-23T13:00:56;8.73;;;8.07;;
6197;SDS011;3132;42.622;23.328;2024-02-23T13:03:23;9.60;;;9.03;;
6197;SDS011;3132;42.622;23.328;2024-02-23T13:05:49;10.13;;;9.63;;
6197;SDS011;3132;42.622;23.328;2024-02-23T13:08:15;9.13;;;8.73;;
6197;SDS011;3132;42.622;23.328;2024-02-23T13:10:40;9.03;;;8.43;;
6197;SDS011;3132;42.622;23.328;2024-02-23T13:13:06;9.93;;;9.43;;
6197;SDS011;3132;42.622;23.328;2024-02-23T13:15:32;12.60;;;10.20;;
6197;SDS011;3132;42.622;23.328;2024-02-23T13:17:57;9.77;;;9.30;;
6197;SDS011;3132;42.622;23.328;2024-02-23T13:20:23;9.30;;;8.60;;
6197;SDS011;3132;42.622;23.328;2024-02-23T13:22:49;9.60;;;9.07;;
6197;SDS011;3132;42.622;23.328;2024-02-23T13:25:15;12.27;;;9.67;;
6197;SDS011;3132;42.622;23.328;2024-02-23T13:27:40;9.23;;;8.73;;
6197;SDS011;3132;42.622;23.328;2024-02-23T13:30:05;8.97;;;8.47;;
6197;SDS011;3132;42.622;23.328;2024-02-23T13:32:32;10.60;;;9.70;;
6197;SDS011;3132;42.622;23.328;2024-02-23T13:34:57;9.20;;;8.60;;
6197;SDS011;3132;42.622;23.328;2024-02-23T13:37:23;9.33;;;8.73;;
6197;SDS011;3132;42.622;23.328;2024-02-23T13:39:48;10.70;;;10.00;;
6197;SDS011;3132;42.622;23.328;2024-02-23T13:42:14;10.30;;;9.37;;
6197;SDS011;3132;42.622;23.328;2024-02-23T13:44:39;9.73;;;9.33;;
6197;SDS011;3132;42.622;23.328;2024-02-23T13:47:04;9.10;;;8.63;;
6197;SDS011;3132;42.622;23.328;2024-02-23T13:49:30;8.90;;;8.50;;
6197;SDS011;3132;42.622;23.328;2024-02-23T13:51:55;9.57;;;8.97;;
6197;SDS011;3132;42.622;23.328;2024-02-23T13:54:20;9.03;;;8.43;;
6197;SDS011;3132;42.622;23.328;2024-02-23T13:56:46;9.43;;;9.03;;
6197;SDS011;3132;42.622;23.328;2024-02-23T13:59:12;9.77;;;9.30;;
6197;SDS011;3132;42.622;23.328;2024-02-23T14:01:37;12.17;;;11.43;;
6197;SDS011;3132;42.622;23.328;2024-02-23T14:04:05;9.30;;;8.73;;
6197;SDS011;3132;42.622;23.328;2024-02-23T14:06:31;8.43;;;8.03;;
6197;SDS011;3132;42.622;23.328;2024-02-23T14:08:57;10.83;;;9.30;;
6197;SDS011;3132;42.622;23.328;2024-02-23T14:11:22;9.20;;;8.80;;
6197;SDS011;3132;42.622;23.328;2024-02-23T14:13:48;8.67;;;7.97;;
6197;SDS011;3132;42.622;23.328;2024-02-23T14:16:13;10.07;;;9.47;;
6197;SDS011;3132;42.622;23.328;2024-02-23T14:18:38;9.93;;;9.23;;
6197;SDS011;3132;42.622;23.328;2024-02-23T14:21:07;9.43;;;8.93;;
6197;SDS011;3132;42.622;23.328;2024-02-23T14:23:32;10.20;;;9.30;;
6197;SDS011;3132;42.622;23.328;2024-02-23T14:25:58;9.90;;;9.30;;
6197;SDS011;3132;42.622;23.328;2024-02-23T14:28:24;8.47;;;7.97;;
6197;SDS011;3132;42.622;23.328;2024-02-23T14:30:49;9.73;;;9.33;;
6197;SDS011;3132;42.622;23.328;2024-02-23T14:33:15;8.93;;;8.50;;
6197;SDS011;3132;42.622;23.328;2024-02-23T14:35:41;10.40;;;9.80;;